Time;durP1;ratioP1;P1;durP2;ratioP2;P2;SDS_P1;SDS_P2;PMS_P1;PMS_P2;Temp;Humidity;BMP_temperature;BMP_pressure;BME280_temperature;BME280_humidity;BME280_pressure;Samples;Min_cycle;Max_cycle;Signal;HPM_P1;HPM_P2
2023/01/17 00:00:56;;;;;;;;;;;18.00;64.90;;;;;;5019156;28;896;-72
2023/01/17 00:03:21;;;;;;;;;;;18.00;64.90;;;;;;5028174;28;1597;-72
2023/01/17 00:09:51;;;;;;;;;;;18.00;65.00;;;;;;5021015;28;722;-72
2023/01/17 00:11:19;;;;;;;;;;;18.00;65.00;;;;;;5018828;28;1948;-72
2023/01/17 00:13:45;;;;;;;;;;;18.00;65.00;;;;;;5053051;28;875;-72
2023/01/17 00:16:10;;;;;;;;;;;17.90;65.00;;;;;;5052128;28;1363;-74
2023/01/17 00:18:36;;;;;;;;;;;17.90;65.00;;;;;;5053746;28;907;-73
2023/01/17 00:26:29;;;;;;;;;;;17.90;65.10;;;;;;5019594;28;1335;-74
2023/01/17 01:35:48;;;;;;;;;;;17.90;65.20;;;;;;5049477;28;894;-71
2023/01/17 01:38:14;;;;;;;;;;;17.90;65.20;;;;;;5048140;28;1399;-70
2023/01/17 01:40:57;;;;;;;;;;;17.90;65.20;;;;;;5050793;28;863;-71
2023/01/17 01:43:38;;;;;;;;;;;17.90;65.20;;;;;;5016051;28;1262;-71
2023/01/17 01:46:03;;;;;;;;;;;17.90;65.20;;;;;;5018079;28;1243;-71
2023/01/17 01:48:47;;;;;;;;;;;18.00;65.20;;;;;;5006278;28;1199;-71
2023/01/17 01:51:15;;;;;;;;;;;17.90;65.20;;;;;;5017265;28;1961;-74
2023/01/17 01:53:41;;;;;;;;;;;17.90;65.10;;;;;;5038868;28;1270;-74
2023/01/17 01:56:08;;;;;;;;;;;17.90;65.20;;;;;;5047686;28;1339;-76
2023/01/17 01:58:35;;;;;;;;;;;18.00;65.20;;;;;;5010684;28;1154;-76
2023/01/17 02:01:01;;;;;;;;;;;17.90;65.10;;;;;;5018903;28;875;-75
2023/01/17 02:03:28;;;;;;;;;;;17.90;65.20;;;;;;5027663;28;1351;-72
2023/01/17 02:05:53;;;;;;;;;;;17.90;65.20;;;;;;5023643;28;1374;-73
2023/01/17 02:08:19;;;;;;;;;;;17.90;65.20;;;;;;5020753;28;938;-73
2023/01/17 02:10:45;;;;;;;;;;;17.90;65.20;;;;;;5050263;28;1914;-73
2023/01/17 02:13:10;;;;;;;;;;;17.90;65.20;;;;;;5019290;28;846;-73
2023/01/17 02:15:40;;;;;;;;;;;17.90;65.20;;;;;;5019979;28;1307;-73
2023/01/17 02:18:26;;;;;;;;;;;17.90;65.20;;;;;;5021398;28;1419;-74
2023/01/17 02:21:10;;;;;;;;;;;17.90;65.20;;;;;;5048008;28;899;-73
2023/01/17 02:23:35;;;;;;;;;;;17.90;65.20;;;;;;5017811;28;943;-74
2023/01/17 02:26:04;;;;;;;;;;;18.00;65.20;;;;;;5017847;28;1253;-74
2023/01/17 02:28:29;;;;;;;;;;;18.00;65.20;;;;;;5018789;28;872;-74
2023/01/17 02:31:00;;;;;;;;;;;17.90;65.20;;;;;;5014152;28;1883;-74
2023/01/17 02:33:39;;;;;;;;;;;17.90;65.20;;;;;;5018564;28;1084;-74
2023/01/17 02:36:05;;;;;;;;;;;17.90;65.20;;;;;;5046396;28;1393;-74
2023/01/17 02:38:45;;;;;;;;;;;18.00;65.20;;;;;;5024353;28;879;-72
2023/01/17 02:41:12;;;;;;;;;;;17.90;65.20;;;;;;5049868;28;838;-71
2023/01/17 02:43:38;;;;;;;;;;;17.90;65.20;;;;;;5023304;28;1531;-72
2023/01/17 02:46:04;;;;;;;;;;;18.00;65.30;;;;;;5052633;28;1670;-73
2023/01/17 02:48:30;;;;;;;;;;;17.90;65.20;;;;;;5019310;28;880;-73
2023/01/17 02:51:07;;;;;;;;;;;17.90;65.20;;;;;;5021627;28;1910;-73
2023/01/17 02:53:33;;;;;;;;;;;17.90;65.20;;;;;;5024576;28;1290;-75
2023/01/17 02:56:01;;;;;;;;;;;17.90;65.20;;;;;;5021291;28;1272;-73
2023/01/17 02:58:30;;;;;;;;;;;17.90;65.20;;;;;;5045015;28;1190;-74
2023/01/17 03:01:02;;;;;;;;;;;17.90;65.20;;;;;;5023666;28;1282;-71
2023/01/17 03:03:46;;;;;;;;;;;17.90;65.20;;;;;;5025218;28;1287;-73
2023/01/17 03:06:14;;;;;;;;;;;17.90;65.20;;;;;;5022828;28;1261;-73
2023/01/17 03:08:43;;;;;;;;;;;18.00;65.30;;;;;;5029204;28;1101;-73
2023/01/17 03:11:08;;;;;;;;;;;17.90;65.20;;;;;;5024730;28;1971;-73
2023/01/17 03:13:34;;;;;;;;;;;17.90;65.20;;;;;;5021947;28;817;-72
2023/01/17 03:16:00;;;;;;;;;;;17.90;65.20;;;;;;5053025;28;1390;-72
2023/01/17 03:18:26;;;;;;;;;;;17.90;65.20;;;;;;5053078;28;983;-72
2023/01/17 03:20:51;;;;;;;;;;;17.90;65.20;;;;;;5026007;28;1436;-72
2023/01/17 03:23:17;;;;;;;;;;;17.90;65.30;;;;;;5022522;28;1027;-73
2023/01/17 03:25:42;;;;;;;;;;;17.90;65.20;;;;;;5024236;28;1305;-73
2023/01/17 03:28:08;;;;;;;;;;;17.90;65.30;;;;;;5023147;28;1236;-72
2023/01/17 03:30:33;;;;;;;;;;;17.90;65.30;;;;;;5022562;28;1387;-74
2023/01/17 03:32:59;;;;;;;;;;;17.90;65.30;;;;;;5055790;28;1890;-74
2023/01/17 03:35:24;;;;;;;;;;;17.90;65.20;;;;;;5057107;28;1309;-75
2023/01/17 03:37:49;;;;;;;;;;;17.90;65.30;;;;;;5021940;28;1327;-76
2023/01/17 03:40:15;;;;;;;;;;;18.00;65.30;;;;;;5055473;28;1363;-70
2023/01/17 03:42:41;;;;;;;;;;;17.90;65.20;;;;;;5022311;28;855;-71
2023/01/17 03:45:07;;;;;;;;;;;17.90;65.30;;;;;;5023152;28;1064;-71
2023/01/17 03:47:33;;;;;;;;;;;17.90;65.20;;;;;;5021091;28;1383;-71
2023/01/17 03:49:58;;;;;;;;;;;17.90;65.20;;;;;;5020839;28;982;-71
2023/01/17 03:52:24;;;;;;;;;;;17.90;65.30;;;;;;5027954;28;1898;-72
2023/01/17 03:54:49;;;;;;;;;;;17.90;65.30;;;;;;5020368;28;863;-72
2023/01/17 03:57:15;;;;;;;;;;;18.00;65.30;;;;;;5020183;28;1257;-71
2023/01/17 03:59:40;;;;;;;;;;;17.90;65.30;;;;;;5018796;28;1026;-72
2023/01/17 04:02:06;;;;;;;;;;;17.90;65.30;;;;;;5018909;28;864;-72
2023/01/17 04:04:31;;;;;;;;;;;17.90;65.30;;;;;;5052228;28;1359;-71
2023/01/17 04:06:57;;;;;;;;;;;17.90;65.30;;;;;;5051482;28;1369;-72
2023/01/17 04:09:22;;;;;;;;;;;17.90;65.30;;;;;;5022694;28;836;-72
2023/01/17 04:11:49;;;;;;;;;;;17.90;65.30;;;;;;5019738;28;1906;-72
2023/01/17 04:14:15;;;;;;;;;;;17.90;65.30;;;;;;5033274;28;1200;-70
2023/01/17 04:16:41;;;;;;;;;;;17.90;65.30;;;;;;5048597;28;1251;-72
2023/01/17 04:19:08;;;;;;;;;;;17.90;65.30;;;;;;5052336;28;934;-72
2023/01/17 04:21:33;;;;;;;;;;;17.90;65.30;;;;;;5052359;28;853;-72
2023/01/17 04:23:58;;;;;;;;;;;17.90;65.30;;;;;;5019054;28;1078;-72
2023/01/17 04:26:24;;;;;;;;;;;17.90;65.30;;;;;;5022186;28;1338;-71
2023/01/17 04:28:49;;;;;;;;;;;17.90;65.30;;;;;;5023176;28;943;-72
2023/01/17 04:31:15;;;;;;;;;;;17.90;65.40;;;;;;5019471;28;1958;-72
2023/01/17 04:33:40;;;;;;;;;;;17.90;65.40;;;;;;5019120;28;1415;-71
2023/01/17 04:36:06;;;;;;;;;;;17.90;65.40;;;;;;5035909;28;1229;-72
2023/01/17 04:38:31;;;;;;;;;;;17.90;65.40;;;;;;5018882;28;902;-72
2023/01/17 04:40:57;;;;;;;;;;;17.90;65.40;;;;;;5026474;28;1472;-72
2023/01/17 04:43:22;;;;;;;;;;;17.90;65.40;;;;;;5019323;28;986;-72
2023/01/17 04:45:52;;;;;;;;;;;17.90;65.40;;;;;;5042000;28;1234;-72
2023/01/17 04:48:18;;;;;;;;;;;17.90;65.40;;;;;;5022410;28;883;-72
2023/01/17 04:50:43;;;;;;;;;;;17.90;65.40;;;;;;5019736;28;1906;-72
2023/01/17 04:53:09;;;;;;;;;;;17.90;65.50;;;;;;5018677;28;887;-72
2023/01/17 04:55:34;;;;;;;;;;;17.90;65.40;;;;;;5019756;28;978;-72
2023/01/17 04:58:00;;;;;;;;;;;17.90;65.50;;;;;;5018123;28;1249;-72
2023/01/17 05:00:25;;;;;;;;;;;17.80;65.40;;;;;;5020694;28;930;-72
2023/01/17 05:02:50;;;;;;;;;;;17.80;65.40;;;;;;5020394;28;884;-72
2023/01/17 05:05:16;;;;;;;;;;;17.90;65.50;;;;;;5034008;28;943;-72
2023/01/17 05:07:41;;;;;;;;;;;17.90;65.50;;;;;;5020306;28;1283;-71
2023/01/17 05:10:07;;;;;;;;;;;17.90;65.50;;;;;;5049990;28;1040;-72
2023/01/17 05:12:33;;;;;;;;;;;17.90;65.50;;;;;;5020273;28;2000;-72
2023/01/17 05:14:58;;;;;;;;;;;17.90;65.40;;;;;;5023819;28;1015;-72
2023/01/17 05:17:24;;;;;;;;;;;17.90;65.30;;;;;;5016594;28;1262;-71
2023/01/17 05:19:49;;;;;;;;;;;18.00;65.20;;;;;;5018576;28;856;-72
2023/01/17 05:22:15;;;;;;;;;;;18.00;65.10;;;;;;5018827;28;876;-72
2023/01/17 05:24:44;;;;;;;;;;;18.10;65.00;;;;;;5019198;28;1634;-72
2023/01/17 05:27:10;;;;;;;;;;;18.10;64.80;;;;;;5023280;28;1286;-71
2023/01/17 05:29:35;;;;;;;;;;;18.10;64.70;;;;;;5019085;28;885;-72
2023/01/17 05:32:01;;;;;;;;;;;18.20;64.70;;;;;;5016787;28;1926;-72
2023/01/17 05:34:26;;;;;;;;;;;18.20;64.50;;;;;;5021327;28;1029;-72
2023/01/17 05:36:52;;;;;;;;;;;18.20;64.30;;;;;;5024071;28;1355;-72
2023/01/17 05:39:17;;;;;;;;;;;18.20;64.20;;;;;;5019547;28;837;-72
2023/01/17 05:41:43;;;;;;;;;;;18.30;64.20;;;;;;5051267;28;803;-72
2023/01/17 05:44:08;;;;;;;;;;;18.30;64.10;;;;;;5015058;28;781;-72
2023/01/17 05:46:34;;;;;;;;;;;18.30;64.00;;;;;;5034814;28;1360;-72
2023/01/17 05:48:59;;;;;;;;;;;18.30;63.90;;;;;;5017249;28;950;-71
2023/01/17 05:51:25;;;;;;;;;;;18.30;63.90;;;;;;5016556;28;1965;-72
2023/01/17 05:53:50;;;;;;;;;;;18.40;63.90;;;;;;5018401;28;831;-72
2023/01/17 05:56:15;;;;;;;;;;;18.40;64.50;;;;;;5032253;28;1511;-72
2023/01/17 05:58:41;;;;;;;;;;;18.40;63.80;;;;;;5016621;28;1064;-72
2023/01/17 06:01:06;;;;;;;;;;;18.40;63.70;;;;;;5054434;28;897;-72
2023/01/17 06:03:32;;;;;;;;;;;18.40;63.60;;;;;;5018481;28;1261;-72
2023/01/17 06:05:57;;;;;;;;;;;18.40;63.60;;;;;;5020319;28;1923;-71
2023/01/17 06:08:23;;;;;;;;;;;18.40;63.60;;;;;;5021484;28;1196;-72
2023/01/17 06:10:48;;;;;;;;;;;18.40;63.60;;;;;;5021485;28;1952;-72
2023/01/17 06:13:19;;;;;;;;;;;18.40;63.60;;;;;;5020332;28;870;-72
2023/01/17 06:15:45;;;;;;;;;;;18.40;63.50;;;;;;5020295;28;1293;-72
2023/01/17 06:18:11;;;;;;;;;;;18.40;63.50;;;;;;5017012;28;1381;-72
2023/01/17 06:20:36;;;;;;;;;;;18.50;63.50;;;;;;5048253;28;942;-72
2023/01/17 06:23:03;;;;;;;;;;;18.50;63.60;;;;;;5022200;28;805;-72
2023/01/17 06:25:29;;;;;;;;;;;18.50;63.50;;;;;;5050875;28;911;-72
2023/01/17 06:27:54;;;;;;;;;;;18.50;63.50;;;;;;5048387;28;1358;-72
2023/01/17 06:30:20;;;;;;;;;;;18.50;63.40;;;;;;5048789;28;854;-72
2023/01/17 06:32:55;;;;;;;;;;;18.50;63.40;;;;;;5016915;28;1902;-72
2023/01/17 06:35:21;;;;;;;;;;;18.50;63.40;;;;;;5022952;28;1397;-71
2023/01/17 06:37:49;;;;;;;;;;;18.50;63.40;;;;;;5016580;28;1273;-72
2023/01/17 06:40:14;;;;;;;;;;;18.50;63.40;;;;;;5026235;28;1289;-72
2023/01/17 06:42:40;;;;;;;;;;;18.50;63.30;;;;;;5016801;28;812;-71
2023/01/17 06:45:06;;;;;;;;;;;18.50;63.40;;;;;;5018391;28;1055;-72
2023/01/17 06:47:31;;;;;;;;;;;18.50;63.40;;;;;;5020287;28;1261;-71
2023/01/17 06:49:56;;;;;;;;;;;18.50;63.40;;;;;;5020227;28;1072;-72
2023/01/17 06:52:22;;;;;;;;;;;18.50;63.40;;;;;;5017612;28;1894;-72
2023/01/17 06:54:47;;;;;;;;;;;18.50;63.40;;;;;;5018192;28;915;-71
2023/01/17 06:57:13;;;;;;;;;;;18.50;63.30;;;;;;5017505;28;1221;-71
2023/01/17 06:59:38;;;;;;;;;;;18.50;63.30;;;;;;5019456;28;805;-71
2023/01/17 07:02:04;;;;;;;;;;;18.50;63.40;;;;;;5033685;28;1416;-72
2023/01/17 07:04:29;;;;;;;;;;;18.50;63.30;;;;;;5016353;28;957;-71
2023/01/17 07:06:55;;;;;;;;;;;18.50;63.30;;;;;;5019262;28;1281;-72
2023/01/17 07:09:20;;;;;;;;;;;18.50;63.40;;;;;;5016161;28;1130;-72
2023/01/17 07:11:46;;;;;;;;;;;18.50;63.40;;;;;;5018526;28;2009;-72
2023/01/17 07:14:12;;;;;;;;;;;18.50;63.40;;;;;;5014857;28;820;-72
2023/01/17 07:16:37;;;;;;;;;;;18.50;63.40;;;;;;5049744;28;1300;-72
2023/01/17 07:19:02;;;;;;;;;;;18.50;63.40;;;;;;5016980;28;825;-72
2023/01/17 07:21:28;;;;;;;;;;;18.50;63.50;;;;;;5049615;28;796;-72
2023/01/17 07:23:54;;;;;;;;;;;18.40;63.40;;;;;;5018228;28;815;-72
2023/01/17 07:26:19;;;;;;;;;;;18.50;63.50;;;;;;5025332;28;1365;-72
2023/01/17 07:28:45;;;;;;;;;;;18.40;63.50;;;;;;5019874;28;839;-72
2023/01/17 07:31:10;;;;;;;;;;;18.40;63.50;;;;;;5020974;28;1963;-72
2023/01/17 07:33:36;;;;;;;;;;;18.40;63.60;;;;;;5021135;28;858;-72
2023/01/17 07:36:02;;;;;;;;;;;18.40;63.70;;;;;;5021796;28;1389;-73
2023/01/17 07:38:27;;;;;;;;;;;18.40;63.70;;;;;;5053306;28;859;-72
2023/01/17 07:40:56;;;;;;;;;;;18.40;63.70;;;;;;5020484;28;926;-71
2023/01/17 07:43:22;;;;;;;;;;;18.40;63.70;;;;;;5022433;28;950;-71
2023/01/17 07:45:50;;;;;;;;;;;18.40;63.80;;;;;;5022185;28;780;-71
2023/01/17 07:48:16;;;;;;;;;;;18.40;63.80;;;;;;5028668;28;1292;-72
2023/01/17 07:50:42;;;;;;;;;;;18.40;63.90;;;;;;5050944;28;886;-71
2023/01/17 07:53:07;;;;;;;;;;;18.30;63.80;;;;;;5022739;28;1906;-71
2023/01/17 07:55:33;;;;;;;;;;;18.30;63.80;;;;;;5023128;28;855;-72
2023/01/17 07:57:58;;;;;;;;;;;18.30;63.90;;;;;;5053720;28;1240;-73
2023/01/17 08:00:27;;;;;;;;;;;18.30;63.90;;;;;;5022819;28;2072;-72
2023/01/17 08:03:00;;;;;;;;;;;18.30;63.90;;;;;;5035738;28;1808;-73
2023/01/17 08:05:25;;;;;;;;;;;18.30;64.00;;;;;;5028198;28;1282;-72
2023/01/17 08:07:51;;;;;;;;;;;18.30;64.00;;;;;;5052502;28;1268;-72
2023/01/17 08:10:16;;;;;;;;;;;18.30;64.00;;;;;;5022418;28;2111;-72
2023/01/17 08:12:45;;;;;;;;;;;18.30;64.00;;;;;;5026547;28;1910;-72
2023/01/17 08:15:11;;;;;;;;;;;18.30;64.00;;;;;;5020203;28;1637;-73
2023/01/17 08:17:37;;;;;;;;;;;18.30;64.00;;;;;;5024555;28;1323;-73
2023/01/17 08:20:02;;;;;;;;;;;18.30;64.00;;;;;;5022885;28;1460;-72
2023/01/17 08:22:29;;;;;;;;;;;18.30;64.00;;;;;;5022574;28;929;-72
2023/01/17 08:24:54;;;;;;;;;;;18.30;64.00;;;;;;5024476;28;883;-72
2023/01/17 08:27:20;;;;;;;;;;;18.30;64.00;;;;;;5022039;28;1333;-72
2023/01/17 08:29:47;;;;;;;;;;;18.30;64.10;;;;;;5018013;28;871;-72
2023/01/17 08:32:13;;;;;;;;;;;18.30;64.10;;;;;;5022776;28;1958;-72
2023/01/17 08:34:38;;;;;;;;;;;18.30;64.10;;;;;;5052278;28;1388;-72
2023/01/17 08:37:04;;;;;;;;;;;18.30;64.20;;;;;;5040082;28;1351;-74
2023/01/17 08:39:29;;;;;;;;;;;18.30;64.20;;;;;;5020128;28;1034;-74
2023/01/17 08:41:56;;;;;;;;;;;18.30;64.20;;;;;;5028415;28;1289;-73
2023/01/17 08:44:21;;;;;;;;;;;18.30;64.20;;;;;;5024539;28;1338;-73
2023/01/17 08:46:47;;;;;;;;;;;18.30;64.20;;;;;;5012392;28;1210;-73
2023/01/17 08:49:12;;;;;;;;;;;18.30;64.30;;;;;;5020264;28;974;-73
2023/01/17 08:51:38;;;;;;;;;;;18.20;64.30;;;;;;5020747;28;2017;-73
2023/01/17 08:54:04;;;;;;;;;;;18.20;64.30;;;;;;5028537;28;868;-73
2023/01/17 08:56:29;;;;;;;;;;;18.20;64.30;;;;;;5053005;28;1633;-73
2023/01/17 08:58:55;;;;;;;;;;;18.20;64.30;;;;;;5022566;28;888;-73
2023/01/17 09:01:20;;;;;;;;;;;18.20;64.40;;;;;;5018464;28;856;-73
2023/01/17 09:03:50;;;;;;;;;;;18.20;64.40;;;;;;5034613;28;1462;-73
2023/01/17 09:06:16;;;;;;;;;;;18.20;64.40;;;;;;5019715;28;1297;-74
2023/01/17 09:08:45;;;;;;;;;;;18.20;64.50;;;;;;5021870;28;1101;-74
2023/01/17 09:11:12;;;;;;;;;;;18.20;64.50;;;;;;5017800;28;1899;-73
2023/01/17 09:13:37;;;;;;;;;;;18.20;64.50;;;;;;5055240;28;938;-73
2023/01/17 09:16:03;;;;;;;;;;;18.20;64.50;;;;;;5022891;28;1389;-73
2023/01/17 09:18:28;;;;;;;;;;;18.20;64.60;;;;;;5049353;28;876;-73
2023/01/17 09:20:54;;;;;;;;;;;18.20;64.60;;;;;;5019261;28;808;-74
2023/01/17 09:23:20;;;;;;;;;;;18.20;64.70;;;;;;5050688;28;908;-72
2023/01/17 09:25:52;;;;;;;;;;;18.20;64.60;;;;;;5049817;28;808;-73
2023/01/17 09:28:18;;;;;;;;;;;18.10;64.60;;;;;;5018037;28;881;-73
2023/01/17 09:30:44;;;;;;;;;;;18.10;64.60;;;;;;5019140;28;816;-73
2023/01/17 09:33:09;;;;;;;;;;;18.10;64.70;;;;;;5050821;28;1891;-74
2023/01/17 09:35:35;;;;;;;;;;;18.10;64.70;;;;;;5018506;28;1002;-73
2023/01/17 09:38:00;;;;;;;;;;;18.10;64.70;;;;;;5017931;28;1275;-72
2023/01/17 09:40:26;;;;;;;;;;;18.10;64.80;;;;;;5018439;28;873;-74
2023/01/17 09:42:52;;;;;;;;;;;18.10;64.80;;;;;;5036189;28;903;-75
2023/01/17 09:45:17;;;;;;;;;;;18.10;64.80;;;;;;5020837;28;1367;-75
2023/01/17 09:47:44;;;;;;;;;;;18.10;64.80;;;;;;5019710;28;1269;-74
2023/01/17 09:50:21;;;;;;;;;;;18.10;64.90;;;;;;5051498;28;974;-74
2023/01/17 09:52:47;;;;;;;;;;;18.10;64.90;;;;;;5048104;28;1971;-75
2023/01/17 09:55:15;;;;;;;;;;;18.10;64.90;;;;;;5022055;28;1374;-74
2023/01/17 09:57:46;;;;;;;;;;;18.00;64.90;;;;;;5024608;28;1451;-74
2023/01/17 10:00:31;;;;;;;;;;;18.10;65.00;;;;;;5005638;28;1144;-75
2023/01/17 10:02:56;;;;;;;;;;;18.10;65.80;;;;;;5017754;28;861;-77
2023/01/17 10:05:25;;;;;;;;;;;18.00;64.90;;;;;;5035277;28;1424;-73
2023/01/17 10:07:53;;;;;;;;;;;18.00;65.00;;;;;;5022095;28;1274;-73
2023/01/17 10:10:32;;;;;;;;;;;18.00;65.00;;;;;;5020711;28;854;-73
2023/01/17 10:13:00;;;;;;;;;;;18.00;65.10;;;;;;5021411;28;1910;-73
2023/01/17 10:15:44;;;;;;;;;;;18.00;65.10;;;;;;5048633;28;912;-71
2023/01/17 10:18:16;;;;;;;;;;;18.00;65.10;;;;;;5016992;28;1344;-73
2023/01/17 10:20:48;;;;;;;;;;;18.00;65.10;;;;;;5020931;28;959;-73
2023/01/17 10:23:32;;;;;;;;;;;18.00;65.20;;;;;;5049748;28;900;-73
2023/01/17 10:26:01;;;;;;;;;;;18.00;65.20;;;;;;5019894;28;1252;-71
2023/01/17 10:28:34;;;;;;;;;;;18.00;65.20;;;;;;5016968;28;833;-71
2023/01/17 10:31:18;;;;;;;;;;;18.00;65.20;;;;;;5050481;28;1953;-73
2023/01/17 10:33:46;;;;;;;;;;;18.00;65.20;;;;;;5018025;28;844;-73
2023/01/17 10:36:14;;;;;;;;;;;18.00;65.20;;;;;;5018775;28;1368;-72
2023/01/17 10:38:39;;;;;;;;;;;18.00;65.20;;;;;;5047814;28;1323;-72
2023/01/17 10:41:06;;;;;;;;;;;18.00;65.30;;;;;;5021024;28;908;-72
2023/01/17 10:43:38;;;;;;;;;;;17.90;65.30;;;;;;5019034;28;998;-72
2023/01/17 10:46:03;;;;;;;;;;;17.90;65.30;;;;;;5019276;28;1303;-72
2023/01/17 10:48:33;;;;;;;;;;;17.90;65.30;;;;;;5019192;28;824;-72
2023/01/17 10:51:10;;;;;;;;;;;17.90;65.30;;;;;;5019566;28;1906;-72
2023/01/17 10:53:56;;;;;;;;;;;17.90;65.30;;;;;;5018120;28;844;-72
2023/01/17 10:56:23;;;;;;;;;;;18.00;65.40;;;;;;5019224;28;1195;-72
2023/01/17 10:58:49;;;;;;;;;;;17.90;65.40;;;;;;5056147;28;986;-72
2023/01/17 11:01:16;;;;;;;;;;;18.00;65.40;;;;;;5041062;28;801;-72
2023/01/17 11:03:43;;;;;;;;;;;17.90;65.40;;;;;;5051980;28;1719;-73
2023/01/17 11:06:22;;;;;;;;;;;17.90;65.50;;;;;;5020799;28;1286;-73
2023/01/17 11:08:54;;;;;;;;;;;17.90;65.50;;;;;;5022499;28;793;-73
2023/01/17 11:11:21;;;;;;;;;;;17.90;65.50;;;;;;5050714;28;1981;-73
2023/01/17 11:13:46;;;;;;;;;;;17.90;65.50;;;;;;5051486;28;867;-73
2023/01/17 11:16:20;;;;;;;;;;;17.90;65.50;;;;;;5053927;28;1367;-73
2023/01/17 11:18:46;;;;;;;;;;;17.90;65.50;;;;;;5029672;28;804;-73
2023/01/17 11:21:12;;;;;;;;;;;17.90;65.50;;;;;;5036174;28;841;-72
2023/01/17 11:23:38;;;;;;;;;;;17.90;65.50;;;;;;5022153;28;811;-73
2023/01/17 11:26:06;;;;;;;;;;;17.90;65.60;;;;;;5054110;28;1326;-73
2023/01/17 11:28:35;;;;;;;;;;;17.90;65.60;;;;;;5051752;28;902;-73
2023/01/17 11:31:08;;;;;;;;;;;17.90;65.60;;;;;;5024672;28;1930;-73
2023/01/17 11:33:54;;;;;;;;;;;17.90;65.60;;;;;;5049425;28;937;-73
2023/01/17 11:36:26;;;;;;;;;;;17.90;65.60;;;;;;5011576;28;1416;-74
2023/01/17 11:39:02;;;;;;;;;;;17.90;65.60;;;;;;5044560;28;1366;-73
2023/01/17 11:41:32;;;;;;;;;;;17.90;65.60;;;;;;5034682;28;1096;-73
2023/01/17 11:43:58;;;;;;;;;;;17.90;65.60;;;;;;5048461;28;1759;-73
2023/01/17 11:46:23;;;;;;;;;;;17.80;65.60;;;;;;5022043;28;1267;-74
2023/01/17 11:48:50;;;;;;;;;;;17.80;65.60;;;;;;5020816;28;856;-72
2023/01/17 11:51:19;;;;;;;;;;;17.90;65.70;;;;;;5051686;28;1988;-72
2023/01/17 11:53:48;;;;;;;;;;;17.90;65.70;;;;;;5023823;28;959;-71
2023/01/17 11:56:16;;;;;;;;;;;17.90;65.60;;;;;;5023784;28;1534;-72
2023/01/17 11:58:42;;;;;;;;;;;17.90;65.60;;;;;;5019337;28;862;-73
2023/01/17 12:01:13;;;;;;;;;;;18.00;65.50;;;;;;5053190;28;884;-71
2023/01/17 12:03:43;;;;;;;;;;;17.90;65.40;;;;;;5025102;28;1351;-72
2023/01/17 12:06:14;;;;;;;;;;;18.00;65.30;;;;;;5018114;28;1255;-72
2023/01/17 12:08:51;;;;;;;;;;;18.10;65.10;;;;;;5053611;28;925;-71
2023/01/17 12:11:34;;;;;;;;;;;18.10;65.00;;;;;;5020783;28;1965;-74
2023/01/17 12:14:10;;;;;;;;;;;18.10;64.80;;;;;;5022828;28;1048;-72
2023/01/17 12:16:48;;;;;;;;;;;18.20;64.70;;;;;;5020980;28;1316;-70
2023/01/17 12:19:20;;;;;;;;;;;18.20;64.60;;;;;;5022571;28;833;-72
2023/01/17 12:22:04;;;;;;;;;;;18.20;64.50;;;;;;5051328;28;891;-72
2023/01/17 12:24:53;;;;;;;;;;;18.30;64.30;;;;;;5018569;28;895;-72
2023/01/17 12:27:23;;;;;;;;;;;18.30;64.30;;;;;;5022099;28;1262;-72
2023/01/17 12:29:52;;;;;;;;;;;18.30;64.10;;;;;;5023061;28;838;-71
2023/01/17 12:32:18;;;;;;;;;;;18.30;64.00;;;;;;5021026;28;1993;-72
2023/01/17 12:34:52;;;;;;;;;;;18.40;64.00;;;;;;5018040;28;1292;-72
2023/01/17 12:37:19;;;;;;;;;;;18.40;63.90;;;;;;5052356;28;1287;-72
2023/01/17 12:40:11;;;;;;;;;;;18.40;63.90;;;;;;5048365;28;809;-70
2023/01/17 12:42:37;;;;;;;;;;;18.40;63.80;;;;;;5010953;28;1069;-71
2023/01/17 12:45:12;;;;;;;;;;;18.40;63.80;;;;;;5019939;28;854;-71
2023/01/17 12:47:42;;;;;;;;;;;18.40;63.70;;;;;;5053635;28;1338;-72
2023/01/17 12:50:26;;;;;;;;;;;18.50;63.80;;;;;;5047095;28;1026;-72
2023/01/17 12:53:03;;;;;;;;;;;18.40;63.70;;;;;;5024050;28;2003;-73
2023/01/17 12:55:55;;;;;;;;;;;18.50;63.80;;;;;;5023409;28;848;-72
2023/01/17 12:58:22;;;;;;;;;;;18.40;63.70;;;;;;5018212;28;1039;-72
2023/01/17 13:00:50;;;;;;;;;;;18.40;63.70;;;;;;5039722;28;1300;-71
2023/01/17 13:03:39;;;;;;;;;;;18.50;63.70;;;;;;5021661;28;1312;-72
2023/01/17 13:06:04;;;;;;;;;;;18.50;63.70;;;;;;5036321;28;2113;-73
2023/01/17 13:08:41;;;;;;;;;;;18.50;63.70;;;;;;5034812;28;1874;-73
2023/01/17 13:11:14;;;;;;;;;;;18.50;63.70;;;;;;5033211;28;1964;-73
2023/01/17 13:13:40;;;;;;;;;;;18.50;63.70;;;;;;5010924;28;1559;-71
2023/01/17 13:16:06;;;;;;;;;;;18.50;63.60;;;;;;5018570;28;1318;-72
2023/01/17 13:18:33;;;;;;;;;;;18.50;63.60;;;;;;5051358;28;1185;-71
2023/01/17 13:21:03;;;;;;;;;;;18.50;63.60;;;;;;5054530;28;1241;-72
2023/01/17 13:23:29;;;;;;;;;;;18.50;63.50;;;;;;5019095;28;832;-73
2023/01/17 13:25:56;;;;;;;;;;;18.50;63.60;;;;;;5049898;28;1382;-72
2023/01/17 13:28:21;;;;;;;;;;;18.50;63.50;;;;;;5017546;28;855;-73
2023/01/17 13:30:47;;;;;;;;;;;18.50;63.40;;;;;;5016834;28;862;-73
2023/01/17 13:33:20;;;;;;;;;;;18.50;63.40;;;;;;5022856;28;1907;-73
2023/01/17 13:36:03;;;;;;;;;;;18.50;63.40;;;;;;5019954;28;1337;-73
2023/01/17 13:38:53;;;;;;;;;;;18.50;63.40;;;;;;5022941;28;978;-73
2023/01/17 13:41:25;;;;;;;;;;;18.50;63.40;;;;;;5022211;28;847;-73
2023/01/17 13:46:53;;;;;;;;;;;18.50;63.40;;;;;;5045804;28;1317;-72
2023/01/17 13:49:25;;;;;;;;;;;18.50;63.40;;;;;;5016859;28;828;-73
2023/01/17 13:52:19;;;;;;;;;;;18.50;63.40;;;;;;5017266;28;1985;-73
2023/01/17 13:54:48;;;;;;;;;;;18.50;63.40;;;;;;5016500;28;1312;-72
2023/01/17 13:57:31;;;;;;;;;;;18.50;63.40;;;;;;5020351;28;1357;-73
2023/01/17 13:59:57;;;;;;;;;;;18.50;63.40;;;;;;5018295;28;819;-72
2023/01/17 14:02:45;;;;;;;;;;;18.50;63.50;;;;;;5019774;28;1119;-73
2023/01/17 14:05:14;;;;;;;;;;;18.50;63.50;;;;;;5019052;28;1334;-73
2023/01/17 14:08:06;;;;;;;;;;;18.50;63.50;;;;;;5018209;28;1292;-73
2023/01/17 14:10:38;;;;;;;;;;;18.50;63.60;;;;;;5015129;28;1796;-72
2023/01/17 14:13:04;;;;;;;;;;;18.50;63.70;;;;;;5051525;28;1977;-73
2023/01/17 14:15:33;;;;;;;;;;;18.50;63.70;;;;;;5020825;28;994;-73
2023/01/17 14:18:02;;;;;;;;;;;18.40;63.70;;;;;;5048754;28;1253;-73
2023/01/17 14:20:28;;;;;;;;;;;18.40;63.60;;;;;;5013567;28;789;-72
2023/01/17 14:22:54;;;;;;;;;;;18.40;63.70;;;;;;5013956;28;892;-72
2023/01/17 14:25:20;;;;;;;;;;;18.40;63.70;;;;;;5020574;28;832;-73
2023/01/17 14:27:50;;;;;;;;;;;18.40;63.80;;;;;;5009993;28;1372;-73
2023/01/17 14:30:16;;;;;;;;;;;18.40;63.80;;;;;;5020020;28;1015;-74
2023/01/17 14:32:41;;;;;;;;;;;18.40;63.90;;;;;;5024371;28;1890;-72
2023/01/17 14:35:19;;;;;;;;;;;18.40;63.90;;;;;;5020435;28;1369;-73
2023/01/17 14:37:49;;;;;;;;;;;18.40;64.80;;;;;;5023177;28;1330;-71
2023/01/17 14:40:15;;;;;;;;;;;18.40;64.00;;;;;;5020459;28;1211;-73
2023/01/17 14:42:40;;;;;;;;;;;18.30;64.00;;;;;;5025023;28;829;-73
2023/01/17 14:45:07;;;;;;;;;;;18.30;64.00;;;;;;5018782;28;871;-72
2023/01/17 14:47:33;;;;;;;;;;;18.30;64.00;;;;;;5054144;28;1235;-72
2023/01/17 14:50:18;;;;;;;;;;;18.30;64.00;;;;;;5054729;28;859;-72
2023/01/17 14:52:45;;;;;;;;;;;18.30;64.10;;;;;;5018629;28;1963;-72
2023/01/17 14:55:14;;;;;;;;;;;18.30;64.10;;;;;;5020475;28;1185;-74
2023/01/17 14:57:41;;;;;;;;;;;18.30;64.10;;;;;;5007874;28;1303;-73
2023/01/17 15:00:07;;;;;;;;;;;18.30;64.20;;;;;;5020888;28;1180;-74
2023/01/17 15:02:33;;;;;;;;;;;18.30;64.20;;;;;;5022363;28;840;-73
2023/01/17 15:04:58;;;;;;;;;;;18.30;64.30;;;;;;5021174;28;1252;-73
2023/01/17 15:07:26;;;;;;;;;;;18.30;64.20;;;;;;5051929;28;2032;-70
2023/01/17 15:09:51;;;;;;;;;;;18.30;64.20;;;;;;5024695;28;1320;-74
2023/01/17 15:12:18;;;;;;;;;;;18.30;64.30;;;;;;5051367;28;1910;-74
2023/01/17 15:14:44;;;;;;;;;;;18.30;64.30;;;;;;5051426;28;973;-74
2023/01/17 15:17:17;;;;;;;;;;;18.30;64.30;;;;;;5021572;28;1397;-73
2023/01/17 15:19:42;;;;;;;;;;;18.30;64.30;;;;;;5023343;28;889;-71
2023/01/17 15:22:08;;;;;;;;;;;18.30;64.30;;;;;;5022671;28;798;-73
2023/01/17 15:24:36;;;;;;;;;;;18.30;64.30;;;;;;5023926;28;796;-74
2023/01/17 15:27:02;;;;;;;;;;;18.30;64.30;;;;;;5022710;28;1188;-75
2023/01/17 15:29:29;;;;;;;;;;;18.30;64.30;;;;;;5051460;28;1229;-75
2023/01/17 15:31:58;;;;;;;;;;;18.30;64.30;;;;;;5014527;28;1906;-73
2023/01/17 15:34:24;;;;;;;;;;;18.30;64.30;;;;;;5028070;28;1454;-74
2023/01/17 15:36:49;;;;;;;;;;;18.30;64.30;;;;;;5021429;28;1236;-75
2023/01/17 15:39:35;;;;;;;;;;;18.30;64.20;;;;;;5024265;28;895;-71
2023/01/17 15:42:01;;;;;;;;;;;18.30;64.20;;;;;;5020293;28;1088;-75
2023/01/17 15:44:27;;;;;;;;;;;18.30;64.20;;;;;;5020043;28;958;-73
2023/01/17 15:46:54;;;;;;;;;;;18.30;64.20;;;;;;5021055;28;1273;-75
2023/01/17 15:49:20;;;;;;;;;;;18.30;64.10;;;;;;5024092;28;1481;-75
2023/01/17 15:51:50;;;;;;;;;;;18.30;64.10;;;;;;5056159;28;1910;-73
2023/01/17 15:54:24;;;;;;;;;;;18.30;64.10;;;;;;5021454;28;800;-73
2023/01/17 15:57:05;;;;;;;;;;;18.30;64.10;;;;;;5022161;28;1217;-74
2023/01/17 15:59:33;;;;;;;;;;;18.30;64.00;;;;;;5020847;28;805;-75
2023/01/17 16:01:59;;;;;;;;;;;18.30;64.10;;;;;;5020767;28;848;-76